Time;durP1;ratioP1;P1;durP2;ratioP2;P2;SDS_P1;SDS_P2;PMS_P1;PMS_P2;Temp;Humidity;BMP_temperature;BMP_pressure;BME280_temperature;BME280_humidity;BME280_pressure;Samples;Min_cycle;Max_cycle;Signal;HPM_P1;HPM_P2
2022/12/19 00:01:03;;;;;;;43.47;25.13;;;-0.40;99.90;;;;;;4993153;28;20489;-66
2022/12/19 00:03:28;;;;;;;49.90;27.00;;;-0.40;99.90;;;;;;4986222;28;20467;-66
2022/12/19 00:05:54;;;;;;;45.77;27.20;;;-0.40;99.90;;;;;;4991038;28;20478;-67
2022/12/19 00:08:19;;;;;;;43.40;25.63;;;-0.50;99.90;;;;;;4986501;28;20175;-67
2022/12/19 00:10:56;;;;;;;43.33;26.10;;;-0.40;99.90;;;;;;4992760;28;20207;-66
2022/12/19 00:13:22;;;;;;;42.30;25.23;;;-0.40;99.90;;;;;;4991149;28;20172;-65
2022/12/19 00:15:48;;;;;;;46.63;29.77;;;-0.30;99.90;;;;;;4992390;28;20465;-65
2022/12/19 00:18:13;;;;;;;46.47;27.87;;;-0.30;99.90;;;;;;4985960;28;20435;-66
2022/12/19 00:20:39;;;;;;;41.87;24.97;;;-0.30;99.90;;;;;;4993206;28;20218;-65
2022/12/19 00:23:04;;;;;;;44.20;25.77;;;-0.30;99.90;;;;;;4991909;28;20191;-65
2022/12/19 00:25:30;;;;;;;47.60;26.10;;;-0.30;99.90;;;;;;4985867;28;20642;-66
2022/12/19 00:27:55;;;;;;;41.20;26.37;;;-0.30;99.90;;;;;;4990773;28;20187;-66
2022/12/19 00:30:21;;;;;;;48.17;26.90;;;-0.30;99.90;;;;;;4990790;28;20510;-66
2022/12/19 00:32:46;;;;;;;43.97;25.07;;;-0.30;99.90;;;;;;4991614;28;20261;-65
2022/12/19 00:35:12;;;;;;;45.93;25.40;;;-0.20;99.90;;;;;;4990676;28;20669;-65
2022/12/19 00:37:38;;;;;;;45.67;27.87;;;-0.30;99.90;;;;;;4990290;28;20249;-66
2022/12/19 00:40:05;;;;;;;44.20;25.47;;;-0.30;99.90;;;;;;4989594;28;20445;-65
2022/12/19 00:42:30;;;;;;;40.23;25.47;;;-0.30;99.90;;;;;;4991549;28;20175;-65
2022/12/19 00:44:56;;;;;;;45.13;26.23;;;-0.20;99.90;;;;;;4989658;28;20940;-65
2022/12/19 00:47:21;;;;;;;39.57;24.53;;;-0.20;99.90;;;;;;4993125;28;20207;-66
2022/12/19 00:49:50;;;;;;;44.90;27.50;;;-0.10;99.90;;;;;;4991105;28;20199;-65
2022/12/19 00:52:15;;;;;;;47.37;27.27;;;-0.10;99.90;;;;;;4992303;28;21096;-65
2022/12/19 00:54:41;;;;;;;42.77;25.30;;;-0.10;99.90;;;;;;4991353;28;20485;-65
2022/12/19 00:57:06;;;;;;;43.27;25.90;;;-0.10;99.90;;;;;;4991139;28;20693;-66
2022/12/19 00:59:32;;;;;;;43.00;25.30;;;-0.10;99.90;;;;;;4992130;28;20191;-65
2022/12/19 01:01:57;;;;;;;50.63;25.87;;;-0.10;99.90;;;;;;4985285;28;20186;-65
2022/12/19 01:04:23;;;;;;;50.93;26.23;;;-0.20;99.90;;;;;;4998924;28;20180;-66
2022/12/19 01:06:49;;;;;;;46.87;23.67;;;-0.20;99.90;;;;;;4989965;28;20211;-66
2022/12/19 01:09:15;;;;;;;53.27;27.93;;;-0.20;99.90;;;;;;4990062;28;20568;-66
2022/12/19 01:14:25;;;;;;;49.90;24.33;;;-0.20;99.90;;;;;;4990253;28;20257;-65
2022/12/19 01:16:51;;;;;;;47.27;25.67;;;-0.10;99.90;;;;;;4989845;28;20483;-65
2022/12/19 01:19:16;;;;;;;41.33;24.20;;;-0.10;99.90;;;;;;4989249;28;20238;-65
2022/12/19 01:21:42;;;;;;;50.93;27.70;;;-0.10;99.90;;;;;;4990787;28;20176;-66
2022/12/19 01:24:08;;;;;;;42.60;26.10;;;-0.10;99.90;;;;;;4989986;28;20184;-66
2022/12/19 01:26:33;;;;;;;47.40;24.30;;;-0.10;99.90;;;;;;4990206;28;20258;-66
2022/12/19 01:28:59;;;;;;;50.80;27.63;;;-0.10;99.90;;;;;;4989632;28;20180;-65
2022/12/19 01:31:24;;;;;;;38.50;24.07;;;-0.10;99.90;;;;;;4989450;28;20211;-66
2022/12/19 01:33:50;;;;;;;51.93;28.47;;;-0.10;99.90;;;;;;4991062;28;20282;-67
2022/12/19 01:36:15;;;;;;;38.53;24.60;;;0.00;99.90;;;;;;4988093;28;20203;-67
2022/12/19 01:38:41;;;;;;;47.17;27.23;;;0.10;99.90;;;;;;4990674;28;20329;-65
2022/12/19 01:41:09;;;;;;;44.27;25.97;;;0.30;99.90;;;;;;4990673;28;20179;-66
2022/12/19 01:43:59;;;;;;;47.73;25.57;;;0.30;99.90;;;;;;4990882;28;20266;-66
2022/12/19 01:46:38;;;;;;;51.00;27.50;;;0.30;99.90;;;;;;4990811;28;20466;-65
2022/12/19 01:49:05;;;;;;;39.57;24.60;;;0.10;99.90;;;;;;4989991;28;21105;-66
2022/12/19 01:51:40;;;;;;;44.17;26.40;;;0.00;99.90;;;;;;4990270;28;20586;-67
2022/12/19 01:54:13;;;;;;;41.57;24.70;;;0.10;99.90;;;;;;4988079;28;20426;-66
2022/12/19 01:56:44;;;;;;;44.30;26.30;;;0.20;99.90;;;;;;4992934;28;20890;-66
2022/12/19 01:59:16;;;;;;;44.40;26.80;;;0.20;99.90;;;;;;4990791;28;20454;-66
2022/12/19 02:01:42;;;;;;;51.10;27.20;;;0.20;99.90;;;;;;4988660;28;20432;-66
2022/12/19 02:04:09;;;;;;;47.13;27.00;;;0.30;99.90;;;;;;4991688;28;20433;-66
2022/12/19 02:06:35;;;;;;;43.50;27.57;;;0.30;99.90;;;;;;4991593;28;20211;-66
2022/12/19 02:09:01;;;;;;;40.53;25.70;;;0.30;99.90;;;;;;4990964;28;20492;-67
2022/12/19 02:11:26;;;;;;;41.50;26.63;;;0.30;99.90;;;;;;4985798;28;20470;-66
2022/12/19 02:13:52;;;;;;;41.67;26.00;;;0.30;99.90;;;;;;4985814;28;20181;-65
2022/12/19 02:16:48;;;;;;;44.93;27.60;;;0.30;99.90;;;;;;4990238;28;20204;-66
2022/12/19 02:19:48;;;;;;;43.40;25.57;;;0.30;99.90;;;;;;4990225;28;20183;-66
2022/12/19 02:22:18;;;;;;;44.50;24.27;;;0.20;99.90;;;;;;4983934;28;20454;-65
2022/12/19 02:25:16;;;;;;;44.27;26.50;;;0.10;99.90;;;;;;4991073;28;20437;-66
2022/12/19 02:28:01;;;;;;;47.63;29.63;;;0.10;99.90;;;;;;4987014;28;20833;-66
2022/12/19 02:30:41;;;;;;;36.73;25.83;;;0.00;99.90;;;;;;4983492;28;20512;-66
2022/12/19 02:33:34;;;;;;;46.63;29.30;;;0.00;99.90;;;;;;4988190;28;20435;-66
2022/12/19 02:36:17;;;;;;;43.97;28.70;;;0.10;99.90;;;;;;4987183;28;20480;-65
2022/12/19 02:38:49;;;;;;;48.70;28.47;;;0.10;99.90;;;;;;4989564;28;21230;-66
2022/12/19 02:41:23;;;;;;;44.40;28.87;;;0.10;99.90;;;;;;4989261;28;20449;-65
2022/12/19 02:43:51;;;;;;;42.50;26.23;;;0.20;99.90;;;;;;4989345;28;20445;-66
2022/12/19 02:46:18;;;;;;;49.43;30.10;;;0.20;99.90;;;;;;4988412;28;20450;-66
2022/12/19 02:48:44;;;;;;;45.40;29.33;;;0.20;99.90;;;;;;4990372;28;20434;-66
2022/12/19 02:51:10;;;;;;;49.83;30.70;;;0.30;99.90;;;;;;4996616;28;20469;-66
2022/12/19 02:53:36;;;;;;;39.67;26.20;;;0.30;99.90;;;;;;4994002;28;20440;-65
2022/12/19 02:56:36;;;;;;;46.57;29.47;;;0.30;99.90;;;;;;4989327;28;20736;-67
2022/12/19 02:59:59;;;;;;;43.93;26.87;;;0.40;99.90;;;;;;4991054;28;20914;-66
2022/12/19 03:02:53;;;;;;;49.97;27.30;;;0.50;99.90;;;;;;4943641;29;20449;-66
2022/12/19 03:05:40;;;;;;;44.17;27.20;;;0.60;99.90;;;;;;4930410;29;20491;-66
2022/12/19 03:08:31;;;;;;;50.17;27.73;;;0.80;99.90;;;;;;4981181;28;20446;-66
2022/12/19 03:11:12;;;;;;;41.10;27.10;;;0.80;99.90;;;;;;4988108;28;20467;-65
2022/12/19 03:13:46;;;;;;;41.67;26.80;;;0.80;99.90;;;;;;4991624;28;20504;-65
2022/12/19 03:16:12;;;;;;;41.53;24.37;;;0.90;99.90;;;;;;4995111;28;20439;-65
2022/12/19 03:18:38;;;;;;;42.70;26.23;;;0.90;99.90;;;;;;4994875;28;20411;-65
2022/12/19 03:21:14;;;;;;;42.80;23.10;;;0.90;99.90;;;;;;4995471;28;20429;-65
2022/12/19 03:23:40;;;;;;;41.77;23.73;;;1.00;99.90;;;;;;4994972;28;20418;-65
2022/12/19 03:26:10;;;;;;;43.47;25.00;;;1.00;99.90;;;;;;4994967;28;20570;-66
2022/12/19 03:28:48;;;;;;;39.53;23.47;;;1.10;99.90;;;;;;4994546;28;20896;-66
2022/12/19 03:31:17;;;;;;;45.73;25.63;;;1.20;99.90;;;;;;4994610;28;20449;-66
2022/12/19 03:33:44;;;;;;;44.67;25.30;;;1.30;99.90;;;;;;4994911;28;20431;-66
2022/12/19 03:36:14;;;;;;;37.83;23.80;;;1.30;99.90;;;;;;4994600;28;20434;-66
2022/12/19 03:38:44;;;;;;;42.43;26.90;;;1.30;99.90;;;;;;4994418;28;20418;-66
2022/12/19 03:41:13;;;;;;;37.90;23.97;;;1.30;99.90;;;;;;4994597;28;20509;-66
2022/12/19 03:43:40;;;;;;;43.27;26.40;;;1.30;99.90;;;;;;4994579;28;20431;-66
2022/12/19 03:46:14;;;;;;;36.13;23.80;;;1.40;99.90;;;;;;4994446;28;20478;-65
2022/12/19 03:48:45;;;;;;;38.80;22.17;;;1.50;99.90;;;;;;4994321;28;20423;-66
2022/12/19 03:51:49;;;;;;;31.20;22.53;;;1.50;99.90;;;;;;4994347;28;20469;-66
2022/12/19 03:54:39;;;;;;;33.63;21.30;;;1.50;99.90;;;;;;4982358;28;20521;-66
2022/12/19 03:57:17;;;;;;;36.13;21.40;;;1.50;99.90;;;;;;4994281;28;20434;-66
2022/12/19 04:00:00;;;;;;;40.87;24.03;;;1.50;99.90;;;;;;4993223;28;20463;-66
2022/12/19 04:02:27;;;;;;;35.13;21.43;;;1.60;99.90;;;;;;4994121;28;20803;-66
2022/12/19 04:05:01;;;;;;;38.27;22.87;;;1.50;99.90;;;;;;4994139;28;20419;-66
2022/12/19 04:07:26;;;;;;;35.40;20.40;;;1.50;99.90;;;;;;4993975;28;20454;-66
2022/12/19 04:09:54;;;;;;;35.47;21.53;;;1.50;99.90;;;;;;4993635;28;20457;-66
2022/12/19 04:12:29;;;;;;;38.83;20.57;;;1.50;99.90;;;;;;4994180;28;20591;-67
2022/12/19 04:14:55;;;;;;;34.00;19.90;;;1.50;99.90;;;;;;4994043;28;20480;-66
2022/12/19 04:17:45;;;;;;;35.77;19.97;;;1.40;99.90;;;;;;4993841;28;20466;-66
2022/12/19 04:20:17;;;;;;;39.90;22.80;;;1.40;99.90;;;;;;4993581;28;20179;-65
2022/12/19 04:23:12;;;;;;;38.13;20.20;;;1.40;99.90;;;;;;4993825;28;20511;-66
2022/12/19 04:25:44;;;;;;;37.07;21.10;;;1.30;99.90;;;;;;4974353;28;20443;-66
2022/12/19 04:28:16;;;;;;;37.43;21.97;;;1.30;99.90;;;;;;4993620;28;20837;-67
2022/12/19 04:30:43;;;;;;;34.33;21.20;;;1.30;99.90;;;;;;4993607;28;20458;-66
2022/12/19 04:33:10;;;;;;;31.77;20.90;;;1.20;99.90;;;;;;4993545;28;20537;-66
2022/12/19 04:35:35;;;;;;;37.20;21.80;;;1.20;99.90;;;;;;4993454;28;20426;-66
2022/12/19 04:38:01;;;;;;;39.83;25.47;;;1.20;99.90;;;;;;4993488;28;20422;-65
2022/12/19 04:40:27;;;;;;;42.50;22.07;;;1.20;99.90;;;;;;4993281;28;20259;-66
2022/12/19 04:42:52;;;;;;;37.73;21.70;;;1.20;99.90;;;;;;4993446;28;20171;-66
2022/12/19 04:45:18;;;;;;;42.27;25.23;;;1.20;99.90;;;;;;4993496;28;20178;-66
2022/12/19 04:47:43;;;;;;;38.77;23.07;;;1.20;99.90;;;;;;4993160;28;20200;-66
2022/12/19 04:50:09;;;;;;;33.43;22.17;;;1.20;99.90;;;;;;4992952;28;20290;-66
2022/12/19 04:52:35;;;;;;;38.83;23.50;;;1.20;99.90;;;;;;4993254;28;20642;-67
2022/12/19 04:55:00;;;;;;;45.30;26.60;;;1.20;99.90;;;;;;4993200;28;20650;-66
2022/12/19 04:57:29;;;;;;;46.17;25.93;;;1.10;99.90;;;;;;4993145;28;20720;-66
2022/12/19 04:59:54;;;;;;;47.60;26.40;;;1.10;99.90;;;;;;4992959;28;20171;-66
2022/12/19 05:02:20;;;;;;;47.60;24.70;;;1.10;99.90;;;;;;4993028;28;20486;-66
2022/12/19 05:04:46;;;;;;;45.13;27.40;;;1.20;99.90;;;;;;4992946;28;20547;-66
2022/12/19 05:07:12;;;;;;;45.07;25.87;;;1.10;99.90;;;;;;4992956;28;20231;-66
2022/12/19 05:09:38;;;;;;;52.20;25.30;;;1.10;99.90;;;;;;4992874;28;20178;-66
2022/12/19 05:12:04;;;;;;;42.17;22.93;;;1.20;99.90;;;;;;4992941;28;20418;-66
2022/12/19 05:14:29;;;;;;;45.10;24.63;;;1.20;99.90;;;;;;4992946;28;20249;-66
2022/12/19 05:16:55;;;;;;;44.03;24.40;;;1.20;99.90;;;;;;4992808;28;20191;-66
2022/12/19 05:19:20;;;;;;;43.67;23.37;;;1.30;99.90;;;;;;4992618;28;20164;-66
2022/12/19 05:21:46;;;;;;;45.40;23.67;;;1.40;99.90;;;;;;4992788;28;20237;-66
2022/12/19 05:24:11;;;;;;;43.33;23.27;;;1.40;99.90;;;;;;4992741;28;20571;-66
2022/12/19 05:26:37;;;;;;;45.33;26.33;;;1.40;99.90;;;;;;4992720;28;20841;-66
2022/12/19 05:29:02;;;;;;;35.53;23.27;;;1.50;99.90;;;;;;4991204;28;20529;-66
2022/12/19 05:31:28;;;;;;;43.80;23.10;;;1.50;99.90;;;;;;4992616;28;20204;-66
2022/12/19 05:33:53;;;;;;;47.77;25.17;;;1.50;99.90;;;;;;4991393;28;20171;-66
2022/12/19 05:36:19;;;;;;;47.70;25.80;;;1.50;99.90;;;;;;4992494;28;20187;-66
2022/12/19 05:38:44;;;;;;;41.13;23.30;;;1.50;99.90;;;;;;4992315;28;20544;-66
2022/12/19 05:41:13;;;;;;;47.33;23.90;;;1.50;99.90;;;;;;4992708;28;20214;-66
2022/12/19 05:43:38;;;;;;;51.77;24.77;;;1.50;99.90;;;;;;4992628;28;20172;-66
2022/12/19 05:46:05;;;;;;;40.83;21.83;;;1.60;99.90;;;;;;4992468;28;20434;-66
2022/12/19 05:48:30;;;;;;;38.90;21.67;;;1.50;99.90;;;;;;4992332;28;20175;-66
2022/12/19 05:50:56;;;;;;;41.70;24.20;;;1.50;99.90;;;;;;4992425;28;20820;-67
2022/12/19 05:53:21;;;;;;;42.10;25.03;;;1.50;99.90;;;;;;4992462;28;20232;-66
2022/12/19 05:55:47;;;;;;;38.97;21.57;;;1.50;99.90;;;;;;4992559;28;20207;-66
2022/12/19 05:58:12;;;;;;;38.63;21.27;;;1.50;99.90;;;;;;4992194;28;20176;-67
2022/12/19 06:00:38;;;;;;;40.57;24.83;;;1.50;99.90;;;;;;4992349;28;20175;-65
2022/12/19 06:03:03;;;;;;;35.60;22.37;;;1.50;99.90;;;;;;4992175;28;20634;-66
2022/12/19 06:05:29;;;;;;;37.07;22.60;;;1.60;99.90;;;;;;4998503;28;20262;-67
2022/12/19 06:07:55;;;;;;;43.10;23.67;;;1.70;99.90;;;;;;5011774;28;20669;-66
2022/12/19 06:10:20;;;;;;;36.70;23.67;;;1.70;99.90;;;;;;5032313;23;20690;-63
2022/12/19 06:12:46;;;;;;;45.80;23.93;;;1.80;99.90;;;;;;5012077;28;20613;-63
2022/12/19 06:15:11;;;;;;;38.63;23.50;;;1.90;99.90;;;;;;4981255;28;20188;-64
2022/12/19 06:17:37;;;;;;;36.07;21.27;;;1.90;99.90;;;;;;4983476;28;20181;-65
2022/12/19 06:20:03;;;;;;;37.73;22.80;;;2.00;99.90;;;;;;4992005;28;20179;-67
2022/12/19 06:22:28;;;;;;;34.77;21.57;;;1.90;99.90;;;;;;4992052;28;20263;-66
2022/12/19 06:24:54;;;;;;;44.83;20.40;;;1.90;99.90;;;;;;4992327;28;20592;-66
2022/12/19 06:27:19;;;;;;;36.30;21.70;;;1.90;99.90;;;;;;4996004;28;20179;-66
2022/12/19 06:29:45;;;;;;;36.87;19.90;;;1.90;99.90;;;;;;4995555;28;20211;-65
2022/12/19 06:32:10;;;;;;;46.23;20.03;;;1.90;99.90;;;;;;5001336;28;20617;-66
2022/12/19 06:34:36;;;;;;;36.60;20.17;;;1.90;99.90;;;;;;5011826;28;20674;-66
2022/12/19 06:37:01;;;;;;;38.50;21.03;;;1.90;99.90;;;;;;5015426;28;20175;-65
2022/12/19 06:39:27;;;;;;;39.07;20.30;;;1.80;99.90;;;;;;5015011;28;20181;-65
2022/12/19 06:44:36;;;;;;;33.70;21.07;;;1.90;99.90;;;;;;5011819;28;20190;-67
2022/12/19 06:47:02;;;;;;;42.33;20.30;;;1.90;99.90;;;;;;5015199;28;20434;-66
2022/12/19 06:49:27;;;;;;;35.57;19.73;;;1.90;99.90;;;;;;5014796;28;20185;-66
2022/12/19 06:51:53;;;;;;;37.63;20.93;;;1.90;99.90;;;;;;5015072;28;20270;-65
2022/12/19 06:54:18;;;;;;;31.37;19.60;;;1.90;99.90;;;;;;5011602;28;20181;-65
2022/12/19 06:56:44;;;;;;;32.30;19.13;;;2.00;99.90;;;;;;5015071;28;20254;-66
2022/12/19 06:59:15;;;;;;;33.10;17.83;;;2.00;99.90;;;;;;5014644;28;20171;-67
2022/12/19 07:01:58;;;;;;;39.00;20.17;;;2.00;99.90;;;;;;5014865;28;20194;-66
2022/12/19 07:04:34;;;;;;;34.13;20.97;;;2.10;99.90;;;;;;5011397;28;20425;-65
2022/12/19 07:07:00;;;;;;;37.90;19.00;;;2.10;99.90;;;;;;5014950;28;20417;-65
2022/12/19 07:09:28;;;;;;;34.90;18.33;;;2.10;99.90;;;;;;5014457;28;20972;-66
2022/12/19 07:11:53;;;;;;;32.33;19.03;;;2.10;99.90;;;;;;5014643;28;20261;-66
2022/12/19 07:14:19;;;;;;;31.10;19.30;;;2.20;99.90;;;;;;5011152;28;20434;-65
2022/12/19 07:16:46;;;;;;;32.20;20.27;;;2.20;99.90;;;;;;5014587;28;20209;-64
2022/12/19 07:19:12;;;;;;;31.80;19.27;;;2.20;99.90;;;;;;5014342;28;20171;-65
2022/12/19 07:21:38;;;;;;;33.63;18.67;;;2.20;99.90;;;;;;5014549;28;20955;-65
2022/12/19 07:24:05;;;;;;;32.93;17.30;;;2.30;99.90;;;;;;5011047;28;20342;-65
2022/12/19 07:26:31;;;;;;;32.20;18.63;;;2.20;99.90;;;;;;5012080;28;20433;-66
2022/12/19 07:28:57;;;;;;;31.83;17.70;;;2.30;99.90;;;;;;4997182;28;20435;-64
2022/12/19 07:31:23;;;;;;;38.30;18.73;;;2.30;99.90;;;;;;5003176;28;20648;-65
2022/12/19 07:33:48;;;;;;;37.57;20.97;;;2.40;99.90;;;;;;5002558;28;20449;-67
2022/12/19 07:36:14;;;;;;;30.20;17.73;;;2.50;99.90;;;;;;5003842;28;20180;-65
2022/12/19 07:38:39;;;;;;;27.67;18.93;;;2.50;99.90;;;;;;5003820;28;20175;-66
2022/12/19 07:41:05;;;;;;;29.97;19.37;;;2.60;99.90;;;;;;5004697;28;20207;-65
2022/12/19 07:43:30;;;;;;;29.07;19.77;;;2.60;99.90;;;;;;5002898;28;20178;-65
2022/12/19 07:45:56;;;;;;;29.00;20.13;;;2.70;99.90;;;;;;5003343;28;20175;-66
2022/12/19 07:48:22;;;;;;;32.77;20.83;;;2.70;99.90;;;;;;5004106;28;20541;-65
2022/12/19 07:50:48;;;;;;;32.67;21.57;;;2.70;99.90;;;;;;5002640;28;20229;-65
2022/12/19 07:53:16;;;;;;;43.33;24.40;;;2.70;99.90;;;;;;5004517;28;20902;-64
2022/12/19 07:55:42;;;;;;;38.20;24.53;;;2.80;99.90;;;;;;5003320;28;20194;-65
2022/12/19 07:58:10;;;;;;;38.97;23.20;;;2.90;99.90;;;;;;5002489;28;20455;-66
2022/12/19 08:00:36;;;;;;;37.13;19.63;;;2.90;99.90;;;;;;4996042;28;20254;-65
2022/12/19 08:03:02;;;;;;;28.63;18.47;;;3.00;99.90;;;;;;4992311;28;20918;-65
2022/12/19 08:05:27;;;;;;;29.53;20.30;;;3.10;99.90;;;;;;5007723;28;20433;-65
2022/12/19 08:07:53;;;;;;;37.93;19.80;;;3.20;99.90;;;;;;5013351;28;20171;-65
2022/12/19 08:10:21;;;;;;;29.07;18.40;;;3.20;99.90;;;;;;5006389;28;20206;-65
2022/12/19 08:12:47;;;;;;;32.03;18.20;;;3.20;99.90;;;;;;5010870;28;20441;-65
2022/12/19 08:15:13;;;;;;;32.83;21.30;;;3.20;99.90;;;;;;5000756;28;20426;-65
2022/12/19 08:17:39;;;;;;;28.37;18.37;;;3.20;99.90;;;;;;5001740;28;20513;-65
2022/12/19 08:20:06;;;;;;;33.20;18.63;;;3.20;99.90;;;;;;5001910;28;20183;-64
2022/12/19 08:22:32;;;;;;;23.30;17.20;;;3.30;99.90;;;;;;4993915;28;20425;-63
2022/12/19 08:24:57;;;;;;;28.40;17.47;;;3.40;99.90;;;;;;5001443;28;20434;-65
2022/12/19 08:27:24;;;;;;;32.50;21.03;;;3.60;99.90;;;;;;5012676;28;20175;-65
2022/12/19 08:29:49;;;;;;;31.30;20.43;;;3.50;99.90;;;;;;5012500;28;20206;-64
2022/12/19 08:32:15;;;;;;;32.07;20.10;;;3.60;99.90;;;;;;5013127;28;20817;-65
2022/12/19 08:34:41;;;;;;;28.47;18.73;;;3.50;99.90;;;;;;4999726;28;20714;-65
2022/12/19 08:37:08;;;;;;;28.23;19.17;;;3.50;99.90;;;;;;5013235;28;20915;-66
2022/12/19 08:39:33;;;;;;;29.17;19.77;;;3.50;99.90;;;;;;5012170;28;20257;-64
2022/12/19 08:41:59;;;;;;;29.97;18.90;;;3.70;99.90;;;;;;4996607;28;20496;-65
2022/12/19 08:44:25;;;;;;;31.70;18.77;;;3.70;99.90;;;;;;4999374;28;20175;-65
2022/12/19 08:46:50;;;;;;;27.80;18.70;;;3.70;99.90;;;;;;5011736;28;20428;-65
2022/12/19 08:49:17;;;;;;;30.60;20.17;;;3.70;99.90;;;;;;5012633;28;20179;-65
2022/12/19 08:51:43;;;;;;;26.07;17.40;;;3.80;99.90;;;;;;5008632;28;20620;-65
2022/12/19 08:54:09;;;;;;;30.30;18.87;;;3.80;99.90;;;;;;5009369;28;20430;-66
2022/12/19 08:56:34;;;;;;;27.37;19.00;;;3.80;99.90;;;;;;5012085;28;20573;-66
2022/12/19 08:59:00;;;;;;;31.53;21.13;;;3.90;99.90;;;;;;5008675;28;20741;-66
2022/12/19 09:01:25;;;;;;;29.57;20.33;;;3.90;99.90;;;;;;5012508;28;20660;-65
2022/12/19 09:03:51;;;;;;;26.00;19.20;;;4.00;99.90;;;;;;5009831;28;20194;-66
2022/12/19 09:06:17;;;;;;;27.03;18.73;;;4.10;99.90;;;;;;5001963;28;20183;-65
2022/12/19 09:08:43;;;;;;;30.10;18.90;;;4.10;99.90;;;;;;5012261;28;20232;-65
2022/12/19 09:11:14;;;;;;;29.23;18.10;;;4.10;99.90;;;;;;5011632;28;20283;-64
2022/12/19 09:13:41;;;;;;;27.27;19.03;;;4.20;99.90;;;;;;5010267;28;20417;-66
2022/12/19 09:16:14;;;;;;;31.03;19.13;;;4.20;99.90;;;;;;5010419;28;20448;-65
2022/12/19 09:18:41;;;;;;;31.63;18.17;;;4.30;99.90;;;;;;4998331;28;20469;-65
2022/12/19 09:21:07;;;;;;;28.10;17.20;;;4.30;99.90;;;;;;4991904;28;20467;-66
2022/12/19 09:23:33;;;;;;;30.50;19.70;;;4.40;99.90;;;;;;4996535;28;20836;-67
2022/12/19 09:26:07;;;;;;;26.73;18.40;;;4.50;99.90;;;;;;5009131;28;20425;-65
2022/12/19 09:28:33;;;;;;;25.10;18.80;;;4.60;99.90;;;;;;5012477;28;20684;-65
2022/12/19 09:31:05;;;;;;;30.27;17.93;;;4.80;99.90;;;;;;5011222;28;20465;-66
2022/12/19 09:33:33;;;;;;;24.73;18.50;;;4.80;99.90;;;;;;5012433;28;20807;-66
2022/12/19 09:35:59;;;;;;;25.67;17.30;;;5.00;99.90;;;;;;5009186;28;20919;-66
2022/12/19 09:38:26;;;;;;;27.20;16.40;;;5.20;99.90;;;;;;4996845;28;20438;-65
2022/12/19 09:41:30;;;;;;;27.93;16.07;;;5.10;99.90;;;;;;4993612;28;20473;-65
2022/12/19 09:44:14;;;;;;;23.87;13.80;;;5.00;99.90;;;;;;4979233;28;20441;-66
2022/12/19 09:46:52;;;;;;;29.57;13.30;;;4.90;99.90;;;;;;5007576;28;20430;-66
2022/12/19 09:49:33;;;;;;;19.83;13.00;;;4.80;99.90;;;;;;4991837;28;20438;-65
2022/12/19 09:52:07;;;;;;;28.37;15.13;;;4.90;99.90;;;;;;4996825;28;20544;-65
2022/12/19 09:55:03;;;;;;;21.37;15.17;;;5.10;99.90;;;;;;5001689;28;20464;-67
2022/12/19 09:57:47;;;;;;;31.00;17.03;;;5.30;99.90;;;;;;5002787;28;20425;-66
2022/12/19 10:00:18;;;;;;;24.40;15.20;;;5.30;99.90;;;;;;5005100;28;20461;-66
2022/12/19 10:02:50;;;;;;;21.30;15.47;;;5.40;99.90;;;;;;5004564;28;20425;-67
2022/12/19 10:05:43;;;;;;;27.80;15.70;;;5.50;99.90;;;;;;5006861;28;20440;-67
2022/12/19 10:08:15;;;;;;;22.90;15.10;;;5.50;99.90;;;;;;5004916;28;20477;-70
2022/12/19 10:11:08;;;;;;;21.80;15.57;;;5.70;99.90;;;;;;5004022;28;20565;-67
2022/12/19 10:14:07;;;;;;;21.80;14.67;;;6.20;99.90;;;;;;5005138;28;20422;-70
2022/12/19 10:17:02;;;;;;;19.60;16.30;;;6.30;99.90;;;;;;5007297;28;20504;-67
2022/12/19 10:19:43;;;;;;;18.43;12.77;;;6.30;99.90;;;;;;5007990;28;20513;-68
2022/12/19 10:22:44;;;;;;;23.67;14.90;;;6.20;99.90;;;;;;5006897;28;20452;-67
2022/12/19 10:25:37;;;;;;;17.47;12.33;;;6.30;99.90;;;;;;5006423;28;20795;-67
2022/12/19 10:28:24;;;;;;;18.00;12.40;;;6.10;99.90;;;;;;5006061;28;20426;-66
2022/12/19 10:31:02;;;;;;;17.17;11.30;;;6.00;99.90;;;;;;5005288;28;20467;-66
2022/12/19 10:33:36;;;;;;;16.93;14.07;;;5.90;99.90;;;;;;5003591;28;20798;-69
2022/12/19 10:36:09;;;;;;;17.67;13.10;;;6.10;99.90;;;;;;4995570;28;20960;-67
2022/12/19 10:38:49;;;;;;;18.23;12.23;;;6.70;99.90;;;;;;5002686;28;20500;-66
2022/12/19 10:41:30;;;;;;;17.53;12.60;;;7.70;99.90;;;;;;5015291;28;20437;-66
2022/12/19 10:44:07;;;;;;;16.90;12.57;;;8.30;99.90;;;;;;5013056;28;21019;-67
2022/12/19 10:46:37;;;;;;;21.23;13.27;;;8.70;99.90;;;;;;5010729;28;20926;-67
2022/12/19 10:49:16;;;;;;;18.43;12.00;;;8.70;99.90;;;;;;5014929;28;20433;-66
2022/12/19 10:51:54;;;;;;;17.10;11.77;;;8.60;99.90;;;;;;5014734;28;20472;-66
2022/12/19 10:54:22;;;;;;;14.03;11.87;;;8.90;99.90;;;;;;5006815;28;20449;-67
2022/12/19 10:56:48;;;;;;;16.70;12.60;;;8.90;99.90;;;;;;4995888;28;20442;-67
2022/12/19 10:59:19;;;;;;;16.93;12.30;;;9.00;99.90;;;;;;5002920;28;20441;-66
2022/12/19 11:01:47;;;;;;;19.10;14.43;;;8.70;99.90;;;;;;4995307;28;20434;-66
2022/12/19 11:04:32;;;;;;;14.23;11.07;;;8.30;99.90;;;;;;5008125;28;20429;-66
2022/12/19 11:07:18;;;;;;;17.00;12.07;;;8.00;99.90;;;;;;5014620;28;20422;-68
2022/12/19 11:09:44;;;;;;;14.87;11.57;;;8.10;99.90;;;;;;5013806;28;20417;-64
2022/12/19 11:12:14;;;;;;;27.17;13.60;;;8.30;99.90;;;;;;5006427;28;20830;-65
2022/12/19 11:15:12;;;;;;;25.40;14.73;;;8.70;99.90;;;;;;5006743;28;20241;-65
2022/12/19 11:17:37;;;;;;;26.53;14.33;;;9.00;99.90;;;;;;4984542;28;20435;-65
2022/12/19 11:20:18;;;;;;;25.67;13.57;;;9.10;99.90;;;;;;5000861;28;20477;-66
2022/12/19 11:22:59;;;;;;;20.40;12.30;;;9.60;99.90;;;;;;5004243;28;20758;-65
2022/12/19 11:25:40;;;;;;;18.10;11.17;;;10.00;99.90;;;;;;5007808;28;20766;-64
2022/12/19 11:28:32;;;;;;;15.87;11.60;;;10.50;99.90;;;;;;5004982;28;20429;-62
2022/12/19 11:31:14;;;;;;;18.27;12.30;;;10.50;99.90;;;;;;5000738;28;20493;-64
2022/12/19 11:33:44;;;;;;;17.77;13.03;;;10.00;99.90;;;;;;5006646;28;20533;-65
2022/12/19 11:36:45;;;;;;;17.80;11.70;;;10.30;99.90;;;;;;5006198;28;20508;-65
2022/12/19 11:39:43;;;;;;;24.33;14.03;;;10.40;99.90;;;;;;5004427;28;20426;-68
2022/12/19 11:42:23;;;;;;;25.93;12.83;;;9.90;99.90;;;;;;5000796;28;20452;-63
2022/12/19 11:45:16;;;;;;;18.27;13.00;;;9.40;99.90;;;;;;5002319;28;20867;-64
2022/12/19 11:47:49;;;;;;;24.23;12.77;;;9.10;99.90;;;;;;5010271;28;20441;-66
2022/12/19 11:50:22;;;;;;;20.37;15.03;;;9.20;99.90;;;;;;5013918;28;20465;-65
2022/12/19 11:53:10;;;;;;;19.67;14.10;;;9.20;99.90;;;;;;5013198;28;20788;-66
2022/12/19 11:56:02;;;;;;;23.50;12.80;;;8.80;99.90;;;;;;5011341;28;20919;-66
2022/12/19 11:58:31;;;;;;;16.40;12.70;;;8.70;99.90;;;;;;4982233;28;20430;-66
2022/12/19 12:01:22;;;;;;;19.13;12.33;;;8.90;99.90;;;;;;5013791;28;20446;-67
2022/12/19 12:03:53;;;;;;;20.13;12.40;;;9.10;99.90;;;;;;5011513;28;20421;-68
2022/12/19 12:06:19;;;;;;;16.17;12.00;;;9.90;99.90;;;;;;5013076;28;20434;-66
2022/12/19 12:09:16;;;;;;;27.07;13.63;;;10.30;99.90;;;;;;5013666;28;20421;-66
2022/12/19 12:12:14;;;;;;;24.40;14.23;;;9.80;99.90;;;;;;5022044;23;20708;-68
2022/12/19 12:15:10;;;;;;;17.43;12.43;;;9.60;99.90;;;;;;4981927;28;20441;-67
2022/12/19 12:17:51;;;;;;;20.00;12.73;;;9.20;99.90;;;;;;4993215;28;20445;-67
2022/12/19 12:20:37;;;;;;;19.07;13.43;;;9.00;99.90;;;;;;4993410;28;20494;-67
2022/12/19 12:23:32;;;;;;;15.67;12.53;;;8.60;99.90;;;;;;4993188;28;20465;-67
2022/12/19 12:26:25;;;;;;;16.30;13.17;;;8.40;99.90;;;;;;4990883;28;20943;-68
2022/12/19 12:29:15;;;;;;;20.03;15.20;;;8.10;99.90;;;;;;4993489;28;20409;-68
2022/12/19 12:31:55;;;;;;;17.27;12.47;;;8.00;99.90;;;;;;4982827;28;20458;-67
2022/12/19 12:34:42;;;;;;;23.93;15.57;;;8.20;99.90;;;;;;4991396;28;20426;-68
2022/12/19 12:37:31;;;;;;;20.83;14.00;;;8.20;99.90;;;;;;4992551;28;20422;-68
2022/12/19 12:40:12;;;;;;;18.10;15.87;;;8.30;99.90;;;;;;4975759;28;20481;-67
2022/12/19 12:43:06;;;;;;;12.33;10.07;;;8.30;99.90;;;;;;4975303;28;20491;-68
2022/12/19 12:45:40;;;;;;;13.27;10.27;;;8.30;99.90;;;;;;4990458;28;20947;-68
2022/12/19 12:48:36;;;;;;;10.50;8.50;;;8.20;99.90;;;;;;4992358;28;20446;-68
2022/12/19 12:51:03;;;;;;;14.03;9.53;;;8.10;99.90;;;;;;4981877;28;20458;-67
2022/12/19 12:53:35;;;;;;;14.27;10.80;;;8.00;99.90;;;;;;4992753;28;20518;-67
2022/12/19 12:56:03;;;;;;;11.83;10.57;;;7.80;99.90;;;;;;4984636;28;20457;-67
2022/12/19 12:58:53;;;;;;;12.90;11.53;;;7.80;99.90;;;;;;4992174;28;20501;-68
2022/12/19 13:01:27;;;;;;;16.77;10.63;;;7.80;99.90;;;;;;4992426;28;20545;-68
2022/12/19 13:04:02;;;;;;;14.03;11.33;;;7.90;99.90;;;;;;4990898;28;20887;-67
2022/12/19 13:06:42;;;;;;;14.00;11.00;;;7.90;99.90;;;;;;4991854;28;20501;-68